sensor_id;sensor_type;location;lat;lon;timestamp;pressure;altitude;pressure_sealevel;temperature;humidity
70407;BME280;57821;52.202;0.154;2023-01-27T00:00:48;103139.50;;;3.81;100.00
70407;BME280;57821;52.202;0.154;2023-01-27T00:03:15;103143.84;;;3.82;100.00
70407;BME280;57821;52.202;0.154;2023-01-27T00:05:42;103144.72;;;3.83;100.00
70407;BME280;57821;52.202;0.154;2023-01-27T00:08:09;103146.41;;;3.82;100.00
70407;BME280;57821;52.202;0.154;2023-01-27T00:10:36;103148.97;;;3.82;100.00
70407;BME280;57821;52.202;0.154;2023-01-27T00:13:03;103143.06;;;3.83;100.00
70407;BME280;57821;52.202;0.154;2023-01-27T00:15:31;103146.59;;;3.85;100.00
70407;BME280;57821;52.202;0.154;2023-01-27T00:17:58;103149.16;;;3.85;100.00
70407;BME280;57821;52.202;0.154;2023-01-27T00:20:25;103144.00;;;3.85;100.00
70407;BME280;57821;52.202;0.154;2023-01-27T00:22:52;103150.03;;;3.86;100.00
70407;BME280;57821;52.202;0.154;2023-01-27T00:25:19;103148.19;;;3.83;100.00
70407;BME280;57821;52.202;0.154;2023-01-27T00:27:46;103138.88;;;3.85;100.00
70407;BME280;57821;52.202;0.154;2023-01-27T00:30:12;103135.34;;;3.83;100.00
70407;BME280;57821;52.202;0.154;2023-01-27T00:32:39;103130.03;;;3.80;100.00
70407;BME280;57821;52.202;0.154;2023-01-27T00:35:07;103141.06;;;3.79;100.00
70407;BME280;57821;52.202;0.154;2023-01-27T00:37:33;103127.19;;;3.76;100.00
70407;BME280;57821;52.202;0.154;2023-01-27T00:40:03;103141.06;;;3.79;100.00
70407;BME280;57821;52.202;0.154;2023-01-27T00:42:31;103141.06;;;3.79;100.00
70407;BME280;57821;52.202;0.154;2023-01-27T00:44:57;103146.19;;;3.79;100.00
70407;BME280;57821;52.202;0.154;2023-01-27T00:47:24;103146.19;;;3.79;100.00
70407;BME280;57821;52.202;0.154;2023-01-27T00:49:50;103142.84;;;3.80;100.00
70407;BME280;57821;52.202;0.154;2023-01-27T00:52:17;103141.97;;;3.80;100.00
70407;BME280;57821;52.202;0.154;2023-01-27T00:54:43;103144.63;;;3.81;100.00
70407;BME280;57821;52.202;0.154;2023-01-27T00:57:10;103139.50;;;3.81;100.00
70407;BME280;57821;52.202;0.154;2023-01-27T00:59:36;103133.47;;;3.81;100.00
70407;BME280;57821;52.202;0.154;2023-01-27T01:02:03;103136.03;;;3.81;100.00
70407;BME280;57821;52.202;0.154;2023-01-27T01:04:29;103136.94;;;3.81;100.00
70407;BME280;57821;52.202;0.154;2023-01-27T01:06:56;103139.50;;;3.81;100.00
70407;BME280;57821;52.202;0.154;2023-01-27T01:09:22;103135.25;;;3.82;100.00
70407;BME280;57821;52.202;0.154;2023-01-27T01:11:49;103132.69;;;3.82;100.00
70407;BME280;57821;52.202;0.154;2023-01-27T01:14:16;103150.75;;;3.83;100.00
70407;BME280;57821;52.202;0.154;2023-01-27T01:16:42;103143.06;;;3.83;100.00
70407;BME280;57821;52.202;0.154;2023-01-27T01:19:09;103148.19;;;3.83;100.00
70407;BME280;57821;52.202;0.154;2023-01-27T01:21:36;103140.38;;;3.82;100.00
70407;BME280;57821;52.202;0.154;2023-01-27T01:24:05;103140.28;;;3.80;100.00
70407;BME280;57821;52.202;0.154;2023-01-27T01:26:32;103147.03;;;3.78;100.00
70407;BME280;57821;52.202;0.154;2023-01-27T01:28:58;103141.88;;;3.78;100.00
70407;BME280;57821;52.202;0.154;2023-01-27T01:31:26;103141.97;;;3.80;100.00
70407;BME280;57821;52.202;0.154;2023-01-27T01:33:53;103137.72;;;3.80;100.00
70407;BME280;57821;52.202;0.154;2023-01-27T01:36:21;103137.72;;;3.80;100.00
70407;BME280;57821;52.202;0.154;2023-01-27T01:38:48;103135.94;;;3.79;100.00
70407;BME280;57821;52.202;0.154;2023-01-27T01:41:17;103128.84;;;3.75;100.00
70407;BME280;57821;52.202;0.154;2023-01-27T01:43:45;103134.19;;;3.78;100.00
70407;BME280;57821;52.202;0.154;2023-01-27T01:46:12;103132.41;;;3.77;100.00
70407;BME280;57821;52.202;0.154;2023-01-27T01:48:52;103125.22;;;3.71;100.00
70407;BME280;57821;52.202;0.154;2023-01-27T01:51:27;103127.19;;;3.76;100.00
70407;BME280;57821;52.202;0.154;2023-01-27T01:54:14;103115.03;;;3.73;100.00
70407;BME280;57821;52.202;0.154;2023-01-27T01:59:24;103112.28;;;3.70;100.00
70407;BME280;57821;52.202;0.154;2023-01-27T02:01:55;103109.63;;;3.68;100.00
70407;BME280;57821;52.202;0.154;2023-01-27T02:04:25;103106.16;;;3.68;100.00
70407;BME280;57821;52.202;0.154;2023-01-27T02:07:02;103095.53;;;3.62;100.00
70407;BME280;57821;52.202;0.154;2023-01-27T02:09:31;103102.66;;;3.66;100.00
70407;BME280;57821;52.202;0.154;2023-01-27T02:11:58;103099.09;;;3.64;100.00
70407;BME280;57821;52.202;0.154;2023-01-27T02:14:25;103096.34;;;3.61;100.00
70407;BME280;57821;52.202;0.154;2023-01-27T02:16:52;103091.13;;;3.59;100.00
70407;BME280;57821;52.202;0.154;2023-01-27T02:19:29;103085.78;;;3.56;100.00
70407;BME280;57821;52.202;0.154;2023-01-27T02:22:00;103084.88;;;3.56;100.00
70407;BME280;57821;52.202;0.154;2023-01-27T02:24:37;103073.28;;;3.48;100.00
70407;BME280;57821;52.202;0.154;2023-01-27T02:27:07;103085.59;;;3.53;100.00
70407;BME280;57821;52.202;0.154;2023-01-27T02:29:33;103083.94;;;3.54;100.00
70407;BME280;57821;52.202;0.154;2023-01-27T02:32:00;103088.19;;;3.53;100.00
70407;BME280;57821;52.202;0.154;2023-01-27T02:34:29;103090.75;;;3.53;100.00
70407;BME280;57821;52.202;0.154;2023-01-27T02:37:02;103090.53;;;3.50;100.00
70407;BME280;57821;52.202;0.154;2023-01-27T02:39:38;103091.63;;;3.54;100.00
70407;BME280;57821;52.202;0.154;2023-01-27T02:42:09;103082.16;;;3.53;100.00
70407;BME280;57821;52.202;0.154;2023-01-27T02:44:37;103081.38;;;3.54;100.00
70407;BME280;57821;52.202;0.154;2023-01-27T02:47:03;103082.94;;;3.52;100.00
70407;BME280;57821;52.202;0.154;2023-01-27T02:49:30;103085.50;;;3.52;100.00
70407;BME280;57821;52.202;0.154;2023-01-27T02:51:56;103079.38;;;3.50;100.00
70407;BME280;57821;52.202;0.154;2023-01-27T02:54:24;103079.38;;;3.50;100.00
70407;BME280;57821;52.202;0.154;2023-01-27T02:56:52;103082.56;;;3.46;100.00
70407;BME280;57821;52.202;0.154;2023-01-27T02:59:21;103087.06;;;3.50;100.00
70407;BME280;57821;52.202;0.154;2023-01-27T03:01:47;103082.78;;;3.49;100.00
70407;BME280;57821;52.202;0.154;2023-01-27T03:04:14;103084.50;;;3.50;100.00
70407;BME280;57821;52.202;0.154;2023-01-27T03:06:41;103086.28;;;3.51;100.00
70407;BME280;57821;52.202;0.154;2023-01-27T03:09:07;103088.28;;;3.55;100.00
70407;BME280;57821;52.202;0.154;2023-01-27T03:11:36;103090.03;;;3.56;100.00
70407;BME280;57821;52.202;0.154;2023-01-27T03:14:03;103080.75;;;3.58;100.00
70407;BME280;57821;52.202;0.154;2023-01-27T03:16:30;103082.53;;;3.59;100.00
70407;BME280;57821;52.202;0.154;2023-01-27T03:18:56;103085.09;;;3.59;100.00
70407;BME280;57821;52.202;0.154;2023-01-27T03:21:23;103096.25;;;3.59;100.00
70407;BME280;57821;52.202;0.154;2023-01-27T03:23:50;103095.34;;;3.59;100.00
70407;BME280;57821;52.202;0.154;2023-01-27T03:26:20;103079.06;;;3.58;100.00
70407;BME280;57821;52.202;0.154;2023-01-27T03:28:52;103084.22;;;3.58;100.00
70407;BME280;57821;52.202;0.154;2023-01-27T03:31:23;103091.13;;;3.59;100.00
70407;BME280;57821;52.202;0.154;2023-01-27T03:33:55;103093.78;;;3.61;100.00
70407;BME280;57821;52.202;0.154;2023-01-27T03:36:28;103093.78;;;3.61;100.00
70407;BME280;57821;52.202;0.154;2023-01-27T03:38:55;103092.97;;;3.62;100.00
70407;BME280;57821;52.202;0.154;2023-01-27T03:41:21;103093.78;;;3.61;100.00
70407;BME280;57821;52.202;0.154;2023-01-27T03:43:48;103085.28;;;3.62;100.00
70407;BME280;57821;52.202;0.154;2023-01-27T03:46:15;103089.63;;;3.63;100.00
70407;BME280;57821;52.202;0.154;2023-01-27T03:48:41;103088.81;;;3.64;100.00
70407;BME280;57821;52.202;0.154;2023-01-27T03:51:09;103090.59;;;3.65;100.00
70407;BME280;57821;52.202;0.154;2023-01-27T03:53:35;103085.47;;;3.65;100.00
70407;BME280;57821;52.202;0.154;2023-01-27T03:56:03;103083.88;;;3.67;100.00
70407;BME280;57821;52.202;0.154;2023-01-27T03:58:32;103084.75;;;3.67;100.00
70407;BME280;57821;52.202;0.154;2023-01-27T04:03:31;103082.28;;;3.69;100.00
70407;BME280;57821;52.202;0.154;2023-01-27T04:06:02;103063.16;;;3.64;100.00
70407;BME280;57821;52.202;0.154;2023-01-27T04:08:28;103082.28;;;3.69;100.00
70407;BME280;57821;52.202;0.154;2023-01-27T04:11:01;103081.41;;;3.68;100.00
70407;BME280;57821;52.202;0.154;2023-01-27T04:13:28;103082.28;;;3.69;100.00
70407;BME280;57821;52.202;0.154;2023-01-27T04:15:54;103085.84;;;3.71;100.00
70407;BME280;57821;52.202;0.154;2023-01-27T04:18:21;103085.75;;;3.69;100.00
70407;BME280;57821;52.202;0.154;2023-01-27T04:20:47;103074.69;;;3.70;100.00
70407;BME280;57821;52.202;0.154;2023-01-27T04:23:14;103084.25;;;3.73;100.00
70407;BME280;57821;52.202;0.154;2023-01-27T04:25:40;103083.38;;;3.72;100.00
70407;BME280;57821;52.202;0.154;2023-01-27T04:28:07;103085.13;;;3.73;100.00
70407;BME280;57821;52.202;0.154;2023-01-27T04:30:33;103079.09;;;3.73;100.00
70407;BME280;57821;52.202;0.154;2023-01-27T04:33:00;103085.06;;;3.72;100.00
70407;BME280;57821;52.202;0.154;2023-01-27T04:35:26;103086.03;;;3.74;100.00
70407;BME280;57821;52.202;0.154;2023-01-27T04:38:04;103090.25;;;3.73;100.00
70407;BME280;57821;52.202;0.154;2023-01-27T04:40:30;103096.28;;;3.74;100.00
70407;BME280;57821;52.202;0.154;2023-01-27T04:42:57;103097.97;;;3.73;100.00
70407;BME280;57821;52.202;0.154;2023-01-27T04:45:23;103095.41;;;3.73;100.00
70407;BME280;57821;52.202;0.154;2023-01-27T04:47:50;103093.66;;;3.72;100.00
70407;BME280;57821;52.202;0.154;2023-01-27T04:50:16;103098.69;;;3.71;100.00
70407;BME280;57821;52.202;0.154;2023-01-27T04:52:43;103094.34;;;3.70;100.00
70407;BME280;57821;52.202;0.154;2023-01-27T04:55:10;103095.13;;;3.69;100.00
70407;BME280;57821;52.202;0.154;2023-01-27T04:57:37;103087.44;;;3.69;100.00
70407;BME280;57821;52.202;0.154;2023-01-27T05:00:04;103092.56;;;3.69;100.00
70407;BME280;57821;52.202;0.154;2023-01-27T05:02:31;103101.25;;;3.71;100.00
70407;BME280;57821;52.202;0.154;2023-01-27T05:04:58;103089.19;;;3.70;100.00
70407;BME280;57821;52.202;0.154;2023-01-27T05:07:24;103092.56;;;3.69;100.00
70407;BME280;57821;52.202;0.154;2023-01-27T05:09:51;103089.19;;;3.70;100.00
70407;BME280;57821;52.202;0.154;2023-01-27T05:12:17;103077.16;;;3.69;100.00
70407;BME280;57821;52.202;0.154;2023-01-27T05:14:43;103089.19;;;3.70;100.00
70407;BME280;57821;52.202;0.154;2023-01-27T05:17:10;103089.19;;;3.70;100.00
70407;BME280;57821;52.202;0.154;2023-01-27T05:19:36;103084.06;;;3.70;100.00
70407;BME280;57821;52.202;0.154;2023-01-27T05:22:03;103084.97;;;3.70;100.00
70407;BME280;57821;52.202;0.154;2023-01-27T05:24:30;103086.75;;;3.71;100.00
70407;BME280;57821;52.202;0.154;2023-01-27T05:26:56;103082.50;;;3.72;100.00
70407;BME280;57821;52.202;0.154;2023-01-27T05:29:23;103079.94;;;3.72;100.00
70407;BME280;57821;52.202;0.154;2023-01-27T05:31:50;103082.41;;;3.70;100.00
70407;BME280;57821;52.202;0.154;2023-01-27T05:34:16;103086.75;;;3.71;100.00
70407;BME280;57821;52.202;0.154;2023-01-27T05:36:43;103078.16;;;3.71;100.00
70407;BME280;57821;52.202;0.154;2023-01-27T05:39:10;103078.94;;;3.70;100.00
70407;BME280;57821;52.202;0.154;2023-01-27T05:41:37;103088.31;;;3.69;100.00
70407;BME280;57821;52.202;0.154;2023-01-27T05:44:04;103086.63;;;3.70;100.00
70407;BME280;57821;52.202;0.154;2023-01-27T05:46:31;103090.78;;;3.68;100.00
70407;BME280;57821;52.202;0.154;2023-01-27T05:49:00;103063.00;;;3.61;100.00
70407;BME280;57821;52.202;0.154;2023-01-27T05:51:30;103072.75;;;3.66;100.00
70407;BME280;57821;52.202;0.154;2023-01-27T05:53:57;103077.78;;;3.65;100.00
70407;BME280;57821;52.202;0.154;2023-01-27T05:56:23;103076.00;;;3.64;100.00
70407;BME280;57821;52.202;0.154;2023-01-27T05:58:50;103081.03;;;3.62;100.00
70407;BME280;57821;52.202;0.154;2023-01-27T06:01:21;103077.69;;;3.63;100.00
70407;BME280;57821;52.202;0.154;2023-01-27T06:03:48;103086.16;;;3.62;100.00
70407;BME280;57821;52.202;0.154;2023-01-27T06:06:17;103073.06;;;3.58;100.00
70407;BME280;57821;52.202;0.154;2023-01-27T06:08:44;103079.25;;;3.61;100.00
70407;BME280;57821;52.202;0.154;2023-01-27T06:11:12;103084.47;;;3.63;100.00
70407;BME280;57821;52.202;0.154;2023-01-27T06:13:39;103081.91;;;3.63;100.00
70407;BME280;57821;52.202;0.154;2023-01-27T06:16:08;103072.16;;;3.57;100.00
70407;BME280;57821;52.202;0.154;2023-01-27T06:18:36;103071.66;;;3.63;100.00
70407;BME280;57821;52.202;0.154;2023-01-27T06:21:05;103083.69;;;3.64;100.00
70407;BME280;57821;52.202;0.154;2023-01-27T06:23:32;103083.00;;;3.66;100.00
70407;BME280;57821;52.202;0.154;2023-01-27T06:26:28;103087.25;;;3.66;100.00
70407;BME280;57821;52.202;0.154;2023-01-27T06:28:55;103088.16;;;3.66;100.00
70407;BME280;57821;52.202;0.154;2023-01-27T06:31:22;103088.94;;;3.65;100.00
70407;BME280;57821;52.202;0.154;2023-01-27T06:33:50;103100.97;;;3.66;100.00
70407;BME280;57821;52.202;0.154;2023-01-27T06:36:18;103097.59;;;3.67;100.00
70407;BME280;57821;52.202;0.154;2023-01-27T06:38:47;103095.91;;;3.68;100.00
70407;BME280;57821;52.202;0.154;2023-01-27T06:41:14;103093.53;;;3.71;100.00
70407;BME280;57821;52.202;0.154;2023-01-27T06:43:40;103098.78;;;3.72;100.00
70407;BME280;57821;52.202;0.154;2023-01-27T06:46:07;103098.06;;;3.75;100.00
70407;BME280;57821;52.202;0.154;2023-01-27T06:48:34;103087.81;;;3.75;100.00
70407;BME280;57821;52.202;0.154;2023-01-27T06:51:00;103085.34;;;3.77;100.00
70407;BME280;57821;52.202;0.154;2023-01-27T06:53:27;103091.34;;;3.77;100.00
70407;BME280;57821;52.202;0.154;2023-01-27T06:55:55;103086.22;;;3.77;100.00
70407;BME280;57821;52.202;0.154;2023-01-27T06:58:22;103100.00;;;3.79;100.00
70407;BME280;57821;52.202;0.154;2023-01-27T07:00:49;103093.31;;;3.81;100.00
70407;BME280;57821;52.202;0.154;2023-01-27T07:03:15;103103.56;;;3.81;100.00
70407;BME280;57821;52.202;0.154;2023-01-27T07:05:40;103100.31;;;3.84;100.00
70407;BME280;57821;52.202;0.154;2023-01-27T07:08:07;103110.66;;;3.85;100.00
70407;BME280;57821;52.202;0.154;2023-01-27T07:10:34;103101.38;;;3.87;100.00
70407;BME280;57821;52.202;0.154;2023-01-27T07:13:07;103097.91;;;3.87;100.00
70407;BME280;57821;52.202;0.154;2023-01-27T07:15:34;103108.28;;;3.88;100.00
70407;BME280;57821;52.202;0.154;2023-01-27T07:18:01;103110.84;;;3.88;100.00
70407;BME280;57821;52.202;0.154;2023-01-27T07:20:28;103105.72;;;3.88;100.00
70407;BME280;57821;52.202;0.154;2023-01-27T07:22:59;103101.47;;;3.89;100.00
70407;BME280;57821;52.202;0.154;2023-01-27T07:25:27;103105.72;;;3.88;100.00
70407;BME280;57821;52.202;0.154;2023-01-27T07:27:56;103105.72;;;3.88;100.00
70407;BME280;57821;52.202;0.154;2023-01-27T07:30:22;103097.22;;;3.89;100.00
70407;BME280;57821;52.202;0.154;2023-01-27T07:32:49;103102.44;;;3.91;100.00
70407;BME280;57821;52.202;0.154;2023-01-27T07:35:16;103098.97;;;3.90;100.00
70407;BME280;57821;52.202;0.154;2023-01-27T07:37:43;103108.56;;;3.93;100.00
70407;BME280;57821;52.202;0.154;2023-01-27T07:40:10;103107.66;;;3.92;100.00
70407;BME280;57821;52.202;0.154;2023-01-27T07:42:38;103112.00;;;3.93;100.00
70407;BME280;57821;52.202;0.154;2023-01-27T07:45:05;103107.66;;;3.92;100.00
70407;BME280;57821;52.202;0.154;2023-01-27T07:47:31;103114.75;;;3.96;100.00
70407;BME280;57821;52.202;0.154;2023-01-27T07:49:58;103113.97;;;3.97;100.00
70407;BME280;57821;52.202;0.154;2023-01-27T07:52:24;103118.22;;;3.97;100.00
70407;BME280;57821;52.202;0.154;2023-01-27T07:54:51;103119.19;;;3.99;100.00
70407;BME280;57821;52.202;0.154;2023-01-27T07:57:18;103115.84;;;4.00;100.00
70407;BME280;57821;52.202;0.154;2023-01-27T07:59:44;103117.53;;;3.99;100.00
70407;BME280;57821;52.202;0.154;2023-01-27T08:02:10;103126.13;;;4.00;100.00
70407;BME280;57821;52.202;0.154;2023-01-27T08:04:37;103118.50;;;4.01;100.00
70407;BME280;57821;52.202;0.154;2023-01-27T08:07:18;103120.25;;;4.02;100.00
70407;BME280;57821;52.202;0.154;2023-01-27T08:09:45;103120.25;;;4.02;100.00
70407;BME280;57821;52.202;0.154;2023-01-27T08:12:11;103118.50;;;4.01;100.00
70407;BME280;57821;52.202;0.154;2023-01-27T08:14:38;103122.75;;;4.01;100.00
70407;BME280;57821;52.202;0.154;2023-01-27T08:17:04;103121.06;;;4.01;100.00
70407;BME280;57821;52.202;0.154;2023-01-27T08:19:31;103128.69;;;4.00;100.00
70407;BME280;57821;52.202;0.154;2023-01-27T08:21:57;103128.94;;;4.04;100.00
70407;BME280;57821;52.202;0.154;2023-01-27T08:24:24;103135.88;;;4.05;100.00
70407;BME280;57821;52.202;0.154;2023-01-27T08:26:50;103138.59;;;4.08;100.00
70407;BME280;57821;52.202;0.154;2023-01-27T08:29:17;103138.69;;;4.10;100.00
70407;BME280;57821;52.202;0.154;2023-01-27T08:31:43;103136.22;;;4.11;100.00
70407;BME280;57821;52.202;0.154;2023-01-27T08:34:10;103134.63;;;4.13;100.00
70407;BME280;57821;52.202;0.154;2023-01-27T08:36:39;103134.56;;;4.12;100.00
70407;BME280;57821;52.202;0.154;2023-01-27T08:39:07;103141.84;;;4.19;100.00
70407;BME280;57821;52.202;0.154;2023-01-27T08:41:34;103147.94;;;4.21;100.00
70407;BME280;57821;52.202;0.154;2023-01-27T08:44:00;103145.47;;;4.23;100.00
70407;BME280;57821;52.202;0.154;2023-01-27T08:46:27;103148.28;;;4.27;100.00
70407;BME280;57821;52.202;0.154;2023-01-27T08:48:53;103152.75;;;4.30;100.00
70407;BME280;57821;52.202;0.154;2023-01-27T08:51:20;103152.91;;;4.33;100.00
70407;BME280;57821;52.202;0.154;2023-01-27T08:53:46;103154.84;;;4.37;100.00
70407;BME280;57821;52.202;0.154;2023-01-27T08:56:14;103161.97;;;4.41;100.00
70407;BME280;57821;52.202;0.154;2023-01-27T08:58:41;103157.00;;;4.44;100.00
70407;BME280;57821;52.202;0.154;2023-01-27T09:01:08;103154.69;;;4.48;100.00
70407;BME280;57821;52.202;0.154;2023-01-27T09:03:35;103161.09;;;4.55;100.00
70407;BME280;57821;52.202;0.154;2023-01-27T09:06:02;103172.50;;;4.60;100.00
70407;BME280;57821;52.202;0.154;2023-01-27T09:08:30;103168.56;;;4.65;100.00
70407;BME280;57821;52.202;0.154;2023-01-27T09:10:56;103170.50;;;4.69;100.00
70407;BME280;57821;52.202;0.154;2023-01-27T09:13:23;103174.22;;;4.74;100.00
70407;BME280;57821;52.202;0.154;2023-01-27T09:15:50;103168.44;;;4.78;100.00
70407;BME280;57821;52.202;0.154;2023-01-27T09:18:18;103169.69;;;4.85;100.00
70407;BME280;57821;52.202;0.154;2023-01-27T09:20:45;103170.84;;;4.90;100.00
70407;BME280;57821;52.202;0.154;2023-01-27T09:23:12;103180.59;;;4.95;100.00
70407;BME280;57821;52.202;0.154;2023-01-27T09:25:38;103185.19;;;5.01;100.00
70407;BME280;57821;52.202;0.154;2023-01-27T09:28:05;103186.44;;;5.08;100.00
70407;BME280;57821;52.202;0.154;2023-01-27T09:30:31;103188.41;;;5.12;100.00
70407;BME280;57821;52.202;0.154;2023-01-27T09:32:58;103188.75;;;5.18;100.00
70407;BME280;57821;52.202;0.154;2023-01-27T09:35:27;103186.44;;;5.22;100.00
70407;BME280;57821;52.202;0.154;2023-01-27T09:37:57;103177.09;;;5.24;100.00
70407;BME280;57821;52.202;0.154;2023-01-27T09:40:32;103180.91;;;5.31;100.00
70407;BME280;57821;52.202;0.154;2023-01-27T09:43:24;103183.22;;;5.41;100.00
70407;BME280;57821;52.202;0.154;2023-01-27T09:46:04;103186.94;;;5.46;100.00
70407;BME280;57821;52.202;0.154;2023-01-27T10:02:39;103196.16;;;5.73;100.00
70407;BME280;57821;52.202;0.154;2023-01-27T10:16:14;103203.78;;;6.03;100.00
70407;BME280;57821;52.202;0.154;2023-01-27T10:27:16;103190.91;;;6.35;100.00
70407;BME280;57821;52.202;0.154;2023-01-27T10:29:56;103195.75;;;6.45;100.00
70407;BME280;57821;52.202;0.154;2023-01-27T10:32:26;103190.91;;;6.51;100.00
70407;BME280;57821;52.202;0.154;2023-01-27T10:43:17;103178.75;;;6.83;100.00
70407;BME280;57821;52.202;0.154;2023-01-27T10:45:58;103184.69;;;6.98;100.00
70407;BME280;57821;52.202;0.154;2023-01-27T10:48:49;103173.03;;;7.06;100.00
70407;BME280;57821;52.202;0.154;2023-01-27T10:51:23;103185.84;;;7.22;100.00
70407;BME280;57821;52.202;0.154;2023-01-27T10:53:56;103185.56;;;7.34;100.00
70407;BME280;57821;52.202;0.154;2023-01-27T10:56:43;103185.41;;;7.49;100.00
70407;BME280;57821;52.202;0.154;2023-01-27T10:59:14;103191.44;;;7.67;100.00
70407;BME280;57821;52.202;0.154;2023-01-27T11:01:52;103180.19;;;7.84;100.00
70407;BME280;57821;52.202;0.154;2023-01-27T11:04:56;103185.00;;;8.13;100.00
70407;BME280;57821;52.202;0.154;2023-01-27T11:07:24;103184.59;;;8.43;100.00
70407;BME280;57821;52.202;0.154;2023-01-27T11:09:56;103182.22;;;8.68;100.00
70407;BME280;57821;52.202;0.154;2023-01-27T11:12:35;103185.28;;;8.99;100.00
70407;BME280;57821;52.202;0.154;2023-01-27T11:17:56;103186.88;;;9.60;100.00
70407;BME280;57821;52.202;0.154;2023-01-27T11:20:38;103185.16;;;9.82;100.00
70407;BME280;57821;52.202;0.154;2023-01-27T11:25:58;103187.94;;;10.11;98.06
70407;BME280;57821;52.202;0.154;2023-01-27T11:34:02;103174.13;;;10.34;97.32
70407;BME280;57821;52.202;0.154;2023-01-27T11:36:29;103173.38;;;10.38;94.75
70407;BME280;57821;52.202;0.154;2023-01-27T11:38:56;103156.25;;;10.42;93.06
70407;BME280;57821;52.202;0.154;2023-01-27T11:41:23;103151.97;;;10.44;91.69
70407;BME280;57821;52.202;0.154;2023-01-27T11:43:50;103156.41;;;10.46;91.05
70407;BME280;57821;52.202;0.154;2023-01-27T11:46:21;103153.81;;;10.46;90.36
70407;BME280;57821;52.202;0.154;2023-01-27T11:48:51;103148.00;;;10.53;89.22
70407;BME280;57821;52.202;0.154;2023-01-27T11:51:21;103166.41;;;10.61;89.57
70407;BME280;57821;52.202;0.154;2023-01-27T11:54:15;103148.09;;;10.56;89.82
70407;BME280;57821;52.202;0.154;2023-01-27T11:56:46;103151.50;;;10.55;88.18
70407;BME280;57821;52.202;0.154;2023-01-27T11:59:22;103141.66;;;10.45;87.72
70407;BME280;57821;52.202;0.154;2023-01-27T12:02:00;103142.28;;;10.38;85.85
70407;BME280;57821;52.202;0.154;2023-01-27T12:10:33;103137.50;;;10.03;87.26
70407;BME280;57821;52.202;0.154;2023-01-27T12:13:07;103143.25;;;9.94;86.55
70407;BME280;57821;52.202;0.154;2023-01-27T12:15:35;103135.75;;;9.78;84.31
70407;BME280;57821;52.202;0.154;2023-01-27T12:18:09;103125.69;;;9.63;85.17
70407;BME280;57821;52.202;0.154;2023-01-27T12:20:38;103123.56;;;9.53;83.37
70407;BME280;57821;52.202;0.154;2023-01-27T12:23:27;103127.63;;;9.46;86.12
70407;BME280;57821;52.202;0.154;2023-01-27T12:25:59;103126.28;;;9.34;83.32
70407;BME280;57821;52.202;0.154;2023-01-27T12:31:03;103125.19;;;9.06;84.44
70407;BME280;57821;52.202;0.154;2023-01-27T12:33:32;103124.81;;;8.97;83.63
70407;BME280;57821;52.202;0.154;2023-01-27T12:36:00;103111.44;;;8.87;83.52
70407;BME280;57821;52.202;0.154;2023-01-27T12:38:32;103117.16;;;8.78;84.30
70407;BME280;57821;52.202;0.154;2023-01-27T12:41:06;103116.94;;;8.74;84.99
70407;BME280;57821;52.202;0.154;2023-01-27T12:43:55;103115.63;;;8.83;87.61
70407;BME280;57821;52.202;0.154;2023-01-27T12:46:24;103115.19;;;8.93;82.95
70407;BME280;57821;52.202;0.154;2023-01-27T12:48:58;103113.91;;;9.04;83.92
70407;BME280;57821;52.202;0.154;2023-01-27T12:51:41;103119.88;;;9.24;87.22
70407;BME280;57821;52.202;0.154;2023-01-27T12:54:34;103113.09;;;9.50;87.54
70407;BME280;57821;52.202;0.154;2023-01-27T12:57:03;103105.09;;;9.66;84.59
70407;BME280;57821;52.202;0.154;2023-01-27T12:59:32;103097.97;;;9.84;83.12
70407;BME280;57821;52.202;0.154;2023-01-27T13:02:01;103113.34;;;10.04;81.15
70407;BME280;57821;52.202;0.154;2023-01-27T13:04:35;103110.16;;;10.11;79.83
70407;BME280;57821;52.202;0.154;2023-01-27T13:07:06;103110.63;;;10.23;80.60
70407;BME280;57821;52.202;0.154;2023-01-27T13:12:19;103104.88;;;10.32;78.71
70407;BME280;57821;52.202;0.154;2023-01-27T13:15:07;103109.59;;;10.18;78.54
70407;BME280;57821;52.202;0.154;2023-01-27T13:17:44;103105.72;;;10.07;79.25
70407;BME280;57821;52.202;0.154;2023-01-27T13:20:16;103106.47;;;10.04;82.92
70407;BME280;57821;52.202;0.154;2023-01-27T13:23:21;103105.97;;;10.14;83.63
70407;BME280;57821;52.202;0.154;2023-01-27T13:31:49;103105.44;;;10.23;79.46
70407;BME280;57821;52.202;0.154;2023-01-27T13:34:39;103095.34;;;10.07;76.19
70407;BME280;57821;52.202;0.154;2023-01-27T13:37:22;103083.50;;;9.89;78.51
70407;BME280;57821;52.202;0.154;2023-01-27T13:42:37;103092.31;;;9.71;77.98
70407;BME280;57821;52.202;0.154;2023-01-27T13:45:11;103087.88;;;9.68;77.77
70407;BME280;57821;52.202;0.154;2023-01-27T13:48:02;103085.56;;;9.76;78.93
70407;BME280;57821;52.202;0.154;2023-01-27T13:50:37;103086.78;;;9.85;77.24
70407;BME280;57821;52.202;0.154;2023-01-27T13:53:04;103090.38;;;9.89;73.46
70407;BME280;57821;52.202;0.154;2023-01-27T14:18:12;103093.81;;;9.20;70.58
70407;BME280;57821;52.202;0.154;2023-01-27T14:20:47;103089.16;;;9.33;70.31
70407;BME280;57821;52.202;0.154;2023-01-27T14:31:23;103094.72;;;9.44;66.59
70407;BME280;57821;52.202;0.154;2023-01-27T14:36:26;103078.53;;;9.26;67.10
70407;BME280;57821;52.202;0.154;2023-01-27T14:42:18;103093.50;;;9.12;67.30
70407;BME280;57821;52.202;0.154;2023-01-27T14:45:15;103096.16;;;9.14;67.25
70407;BME280;57821;52.202;0.154;2023-01-27T15:01:50;103098.50;;;9.30;66.63
70407;BME280;57821;52.202;0.154;2023-01-27T15:04:01;103107.00;;;9.26;65.97
70407;BME280;57821;52.202;0.154;2023-01-27T15:12:02;103113.38;;;8.91;66.85
70407;BME280;57821;52.202;0.154;2023-01-27T15:25:48;103106.72;;;8.35;67.54
70407;BME280;57821;52.202;0.154;2023-01-27T15:28:26;103109.88;;;8.30;67.46